Mist Current Weather (METAR) For London Heathrow Airport

All times on the weather descriptions are local

Observed at 05:50 - (30 mins ago)

Mist

0°C

Mist
Clouds:
Wind: Variable at 01 knots
Visibility: 6,000m
QNH: 1004
Dew Point: -1°C
Runway in Use: Likely Runways 27L/R

Sunrise Today: 07:21
Sunset Today: 17:10

Forecast Weather (TAF) For London Heathrow Airport

Issued at 00:00 - (18 days ago)


Runway in Use: Likely Runways 27L/R

Forecast valid until 00:00 on Monday

METAR/TAF RAW METAR / TAF

EGLL 110550Z AUTO VRB01KT 6000 NCD M00/M01 Q1004 TEMPO 4500 BR

Weather Widget

Put weather from any of our airports on your website with our weather widget.

Find Another Search

Airport Search


Please Wait Please Wait - Loading
Close
Close

Login

Username:

Password:

Remember Me:

Remember me on this computer

Forgotten your password? Get a reset password sent to your registered e-mail address

Close

User Private Message

Subject:

Message: